Other Surface Observations
Issued by NWS

Home | Current Version | Previous Version | Text Only | Print | Product List | Glossary On
Versions: 1 2 3 4 5 6 7 8 9 10 11 12 13 14 15 16 17 18 19 20 21 22 23 24 25 26 27 28 29 30 31 32 33 34 35 36 37 38 39 40 41 42 43 44 45 46 47 48 49 50
494
SXUS53 KWBC 250719
OSOPZ
:SHEF ENCODED 6-MINUTE NOS MET DATA
:NATIONAL WATER LEVEL OBSERVATION NETWORK (NWLON)
:TA(AIR TEMP DEG F)  SLP(SEA LEVEL PRESSURE INCHES)
:UD(WIND DIRECTION WHOLE DEGREES) US (WIND SPEED MPH)
:TW(WATER TEMP DEG F) UG(WIND GUSTS MPH) WC(CONDUCTIVITY uMHOS/CM)
:-9999 (MISSING VALUES)
:PROVIDED BY DOC/NOAA/NOS/CO-OPS, (301) 713-2540
:corms@noaa.gov
.E SDBC1 20190825 Z DH0654/PLIRG/DIN06/29.95/29.95
.E SDBC1 20190825 Z DH0654/TWIRG/DIN06/   73/   72
.E LJAC1 20190825 Z DH0654/TAIRG/DIN06/   69/   69
.E LJAC1 20190825 Z DH0654/PLIRG/DIN06/29.95/29.95
.E LJAC1 20190825 Z DH0654/USIRG/DIN06/    3/    2
.E LJAC1 20190825 Z DH0654/UDIRG/DIN06/   35/   24
.E LJAC1 20190825 Z DH0654/UGIRG/DIN06/    4/    3
.E LJAC1 20190825 Z DH0654/TWIRG/DIN06/   69/   69
.A OHBC1 20190825 Z DH0700/TAIRG -9999/UGIRG -9999/PLIRG 29.98/UDIRG -9999/USIRG -9999/TWIRG    68/WCIRG -9999
.A PRJC1 20190825 Z DH0712/TAIRP -9999/UGIRP     4/PLIRP -9999/UDIRP    51/USIRP     3/TWIRP -9999/WCIRG -9999
.A PFDC1 20190825 Z DH0712/TAIRP -9999/UGIRP     5/PLIRP -9999/UDIRP   323/USIRP     4/TWIRP -9999/WCIRG -9999
.A PFXC1 20190825 Z DH0712/TAIRP -9999/UGIRP     5/PLIRP -9999/UDIRP   340/USIRP     3/TWIRP -9999/WCIRG -9999
.A PXAC1 20190825 Z DH0712/TAIRP -9999/UGIRP     6/PLIRP -9999/UDIRP   335/USIRP     5/TWIRP -9999/WCIRG -9999
.A PSXC1 20190825 Z DH0712/TAIRP -9999/UGIRP     4/PLIRP -9999/UDIRP   333/USIRP     3/TWIRP -9999/WCIRG -9999
.E ICAC1 20190825 Z DH0700/TAIRG/DIN06/   68/   68
.E ICAC1 20190825 Z DH0700/PLIRG/DIN06/29.98/29.98
.E ICAC1 20190825 Z DH0700/USIRG/DIN06/    2/    3
.E ICAC1 20190825 Z DH0700/UDIRG/DIN06/  260/  240
.E ICAC1 20190825 Z DH0700/UGIRG/DIN06/    3/    4
.E ICAC1 20190825 Z DH0700/TWIRG/DIN06/   71/   71
.A NTBC1 20190825 Z DH0706/TAIRP -9999/UGIRP -9999/PLIRP 29.97/UDIRP -9999/USIRP -9999/TWIRP -9999/WCIRP -9999
.E NTBC1 20190825 Z DH0700/TAIRG/DIN06/   64/   64
.E NTBC1 20190825 Z DH0700/PLIRG/DIN06/29.97/29.97
.E NTBC1 20190825 Z DH0700/USIRG/DIN06/    3/    2
.E NTBC1 20190825 Z DH0700/UDIRG/DIN06/  226/  242
.E NTBC1 20190825 Z DH0700/UGIRG/DIN06/    4/    3
.E HRVC1 20190825 Z DH0700/TAIRG/DIN06/   59/   59
.E HRVC1 20190825 Z DH0700/PLIRG/DIN06/29.96/29.96
.A PSLC1 20190825 Z DH0706/TAIRP    59/UGIRP     0/PLIRP 29.99/UDIRP   280/USIRP     0/TWIRP    59/WCIRP -9999
.E PSLC1 20190825 Z DH0654/TAIRG/DIN06/   59/   59
.E PSLC1 20190825 Z DH0654/PLIRG/DIN06/29.99/29.99
.E PSLC1 20190825 Z DH0654/USIRG/DIN06/    0/    0
.E PSLC1 20190825 Z DH0654/UDIRG/DIN06/  281/  280
.E PSLC1 20190825 Z DH0654/UGIRG/DIN06/    0/    0
.E PSLC1 20190825 Z DH0654/TWIRG/DIN06/   59/   59
.E MEYC1 20190825 Z DH0654/PLIRG/DIN06/29.98/29.98
.E MEYC1 20190825 Z DH0654/TWIRG/DIN06/   64/   64
.E FTPC1 20190825 Z DH0654/TAIRG/DIN06/   58/   58
.E FTPC1 20190825 Z DH0654/PLIRG/DIN06/29.98/29.98
.E FTPC1 20190825 Z DH0654/USIRG/DIN06/    2/    4
.E FTPC1 20190825 Z DH0654/UDIRG/DIN06/  249/  240
.E FTPC1 20190825 Z DH0654/UGIRG/DIN06/    7/    7
.E FTPC1 20190825 Z DH0654/TWIRG/DIN06/   62/   62
.A PXSC1 20190825 Z DH0706/TAIRP    60/UGIRP -9999/PLIRP -9999/UDIRP -9999/USIRP -9999/TWIRP -9999/WCIRG -9999
.A PXOC1 20190825 Z DH0712/TAIRP    59/UGIRP     9/PLIRP 29.94/UDIRP   251/USIRP     6/TWIRP -9999/WCIRP -9999
.E RTYC1 20190825 Z DH0700/TAIRG/DIN06/   63/   63
.E RTYC1 20190825 Z DH0700/PLIRG/DIN06/29.99/29.99
.E RTYC1 20190825 Z DH0700/USIRG/DIN06/    7/    6
.E RTYC1 20190825 Z DH0700/UDIRG/DIN06/  320/  318
.E RTYC1 20190825 Z DH0700/UGIRG/DIN06/    8/    7
.E RTYC1 20190825 Z DH0700/TWIRG/DIN06/   76/   76
.E AAMC1 20190825 Z DH0654/TAIRG/DIN06/   60/   60
.E AAMC1 20190825 Z DH0654/PLIRG/DIN06/29.99/29.99
.E AAMC1 20190825 Z DH0654/USIRG/DIN06/    7/    6
.E AAMC1 20190825 Z DH0654/UDIRG/DIN06/  284/  284
.E AAMC1 20190825 Z DH0654/UGIRG/DIN06/    9/    8
.E AAMC1 20190825 Z DH0654/TWIRG/DIN06/   71/   71
.E LNDC1 20190825 Z DH0700/TAIRG/DIN06/   61/   61
.E LNDC1 20190825 Z DH0700/PLIRG/DIN06/29.97/29.97
.E LNDC1 20190825 Z DH0700/USIRG/DIN06/    5/    4
.E LNDC1 20190825 Z DH0700/UDIRG/DIN06/  349/    3
.E LNDC1 20190825 Z DH0700/UGIRG/DIN06/    7/    6
.A OMHC1 20190825 Z DH0700/TAIRG -9999/UGIRG     5/PLIRG -9999/UDIRG   332/USIRG     1/TWIRG -9999/WCIRG -9999
.E OKXC1 20190825 Z DH0700/TAIRG/DIN06/   60/   60
.E OKXC1 20190825 Z DH0700/PLIRG/DIN06/29.97/29.98
.E OKXC1 20190825 Z DH0700/USIRG/DIN06/    6/    4
.E OKXC1 20190825 Z DH0700/UDIRG/DIN06/  303/  289
.E OKXC1 20190825 Z DH0700/UGIRG/DIN06/    7/    7
.E OBXC1 20190825 Z DH0700/TAIRG/DIN06/   60/   61
.A PPXC1 20190825 Z DH0712/TAIRP    61/UGIRP    13/PLIRP 29.98/UDIRP   197/USIRP     9/TWIRP -9999/WCIRP -9999
.A RCMC1 20190825 Z DH0706/TAIRP -9999/UGIRP -9999/PLIRP -9999/UDIRP -9999/USIRP -9999/TWIRP    68/WCIRG -9999
.E RCMC1 20190825 Z DH0654/TAIRG/DIN06/   62/   62
.E RCMC1 20190825 Z DH0654/PLIRG/DIN06/29.96/29.96
.E RCMC1 20190825 Z DH0654/USIRG/DIN06/    3/    3
.E RCMC1 20190825 Z DH0654/UDIRG/DIN06/  201/  175
.E RCMC1 20190825 Z DH0654/UGIRG/DIN06/    5/    5
.E RCMC1 20190825 Z DH0654/TWIRG/DIN06/   67/   68
.E PRYC1 20190825 Z DH0700/PLIRG/DIN06/29.98/29.98
.E PRYC1 20190825 Z DH0700/TWIRG/DIN06/   60/   60
.A MZXC1 20190825 Z DH0700/TAIRG    65/UGIRG    20/PLIRG 29.94/UDIRG   299/USIRG    16/TWIRG    71/WCIRG -9999
.E PSBC1 20190825 Z DH0700/TAIRG/DIN06/   69/   69
.E PSBC1 20190825 Z DH0700/PLIRG/DIN06/29.91/29.91
.E PSBC1 20190825 Z DH0700/USIRG/DIN06/   16/   15
.E PSBC1 20190825 Z DH0700/UDIRG/DIN06/  308/  312
.E PSBC1 20190825 Z DH0700/UGIRG/DIN06/   21/   20
.A UPBC1 20190825 Z DH0712/TAIRP -9999/UGIRP    20/PLIRP -9999/UDIRP   295/USIRP    15/TWIRP -9999/WCIRG -9999
.A DPXC1 20190825 Z DH0712/TAIRP    63/UGIRP    12/PLIRP 29.95/UDIRP   249/USIRP     9/TWIRP -9999/WCIRP -9999
.E PCOC1 20190825 Z DH0700/TAIRG/DIN06/   67/   67
.E PCOC1 20190825 Z DH0700/PLIRG/DIN06/29.94/29.94
.E PCOC1 20190825 Z DH0700/USIRG/DIN06/   19/   21
.E PCOC1 20190825 Z DH0700/UDIRG/DIN06/  264/  266
.E PCOC1 20190825 Z DH0700/UGIRG/DIN06/   23/   23
.E PCOC1 20190825 Z DH0700/TWIRG/DIN06/   73/   73
.E ANVC1 20190825 Z DH0700/TAIRG/DIN06/   54/   54
.E ANVC1 20190825 Z DH0700/PLIRG/DIN06/29.98/29.97
.E ANVC1 20190825 Z DH0700/USIRG/DIN06/    1/    3
.E ANVC1 20190825 Z DH0700/UDIRG/DIN06/   95/  112
.E ANVC1 20190825 Z DH0700/UGIRG/DIN06/    2/    4
.E ANVC1 20190825 Z DH0700/TWIRG/DIN06/   55/   55
.E HBYC1 20190825 Z DH0654/PLIRG/DIN06/30.04/30.04/30.04
.E HBYC1 20190825 Z DH0654/TWIRG/DIN06/   56/   56/   56
.E CECC1 20190825 Z DH0654/TAIRG/DIN06/   56/   56
.E CECC1 20190825 Z DH0654/PLIRG/DIN06/30.01/30.01
.E CECC1 20190825 Z DH0654/USIRG/DIN06/   12/   13
.E CECC1 20190825 Z DH0654/UDIRG/DIN06/  179/  178
.E CECC1 20190825 Z DH0654/UGIRG/DIN06/   17/   17
.E CECC1 20190825 Z DH0654/TWIRG/DIN06/   62/   62
.A PORO3 20190825 Z DH0700/TAIRG    61/UGIRG    14/PLIRG 30.07/UDIRG   324/USIRG    10/TWIRG    48/WCIRG -9999
.A CHAO3 20190825 Z DH0706/TAIRP -9999/UGIRP -9999/PLIRP 30.06/UDIRP -9999/USIRP -9999/TWIRP    54/WCIRP -9999
.E CHAO3 20190825 Z DH0654/PLIRG/DIN06/30.06/30.06/-9999
.E CHAO3 20190825 Z DH0654/USIRG/DIN06/-9999/    2/    4
.E CHAO3 20190825 Z DH0654/UDIRG/DIN06/-9999/   84/   78
.E CHAO3 20190825 Z DH0654/UGIRG/DIN06/-9999/    4/    5
.E CHAO3 20190825 Z DH0654/TWIRG/DIN06/   54/   54/-9999
.A SBEO3 20190825 Z DH0700/TAIRG    59/UGIRG     6/PLIRG 30.06/UDIRG   281/USIRG     4/TWIRG    57/WCIRG -9999
.A TLBO3 20190825 Z DH0700/TAIRG -9999/UGIRG -9999/PLIRG 30.08/UDIRG -9999/USIRG -9999/TWIRG    60/WCIRG -9999
.E ASTO3 20190825 Z DH0700/TAIRG/DIN06/   62/   62
.E ASTO3 20190825 Z DH0700/PLIRG/DIN06/30.06/30.07
.E ASTO3 20190825 Z DH0700/USIRG/DIN06/    6/    5
.E ASTO3 20190825 Z DH0700/UDIRG/DIN06/  333/  305
.E ASTO3 20190825 Z DH0700/UGIRG/DIN06/    8/    7
.E ASTO3 20190825 Z DH0700/TWIRG/DIN06/   68/   68
.A LOPW1 20190825 Z DH0700/TAIRG -9999/UGIRG -9999/PLIRG 30.06/UDIRG -9999/USIRG -9999/TWIRG    71/WCIRG -9999
.A TOKW1 20190825 Z DH0700/TAIRG    60/UGIRG    12/PLIRG 30.08/UDIRG   313/USIRG    10/TWIRG    65/WCIRG -9999
.A WPTW1 20190825 Z DH0700/TAIRG -9999/UGIRG -9999/PLIRG 30.07/UDIRG -9999/USIRG -9999/TWIRG    63/WCIRG -9999
.A LAPW1 20190825 Z DH0706/TAIRP -9999/UGIRP -9999/PLIRP 30.08/UDIRP -9999/USIRP -9999/TWIRP    56/WCIRP -9999
.E LAPW1 20190825 Z DH0700/PLIRG/DIN06/30.08/30.08
.E LAPW1 20190825 Z DH0700/TWIRG/DIN06/   56/   56
.E NEAW1 20190825 Z DH0700/PLIRG/DIN06/30.07/30.07
.E NEAW1 20190825 Z DH0700/TWIRG/DIN06/   57/   56
.A PTAW1 20190825 Z DH0700/TAIRG    61/UGIRG -9999/PLIRG 30.04/UDIRG -9999/USIRG -9999/TWIRG    53/WCIRG -9999
.E PTWW1 20190825 Z DH0654/TAIRG/DIN06/   60/   60
.E PTWW1 20190825 Z DH0654/PLIRG/DIN06/30.05/30.05
.E PTWW1 20190825 Z DH0654/USIRG/DIN06/   15/   15
.E PTWW1 20190825 Z DH0654/UDIRG/DIN06/  223/  228
.E PTWW1 20190825 Z DH0654/UGIRG/DIN06/   21/   22
.E PTWW1 20190825 Z DH0654/TWIRG/DIN06/   54/   54
.E TCMW1 20190825 Z DH0654/USIRG/DIN06/    3/    3
.E TCMW1 20190825 Z DH0654/UDIRG/DIN06/  238/  224
.E TCMW1 20190825 Z DH0654/UGIRG/DIN06/    4/    5
.E TCNW1 20190825 Z DH0654/TAIRG/DIN06/   65/   64
.E TCNW1 20190825 Z DH0654/PLIRG/DIN06/30.05/30.04
.E TCNW1 20190825 Z DH0654/TWIRG/DIN06/   56/   56
.E CPMW1 20190825 Z DH0654/TAIRG/DIN06/   59/   59
.E CPMW1 20190825 Z DH0654/USIRG/DIN06/    9/    8
.E CPMW1 20190825 Z DH0654/UDIRG/DIN06/  152/  149
.E CPMW1 20190825 Z DH0654/UGIRG/DIN06/   10/   10
.E CHYW1 20190825 Z DH0700/PLIRG/DIN06/30.02/30.02
.A FRDW1 20190825 Z DH0712/TAIRP    56/UGIRP     2/PLIRP -9999/UDIRP   184/USIRP     0/TWIRP -9999/WCIRG -9999
.A FRDW1 20190825 Z DH0700/TAIRG -9999/UGIRG -9999/PLIRG 30.02/UDIRG -9999/USIRG -9999/TWIRG    55/WCIRG -9999
.A MGIP4 20190825 Z DH0700/TAIRG    82/UGIRG     8/PLIRG 30.01/UDIRG   107/USIRG     4/TWIRG    83/WCIRG -9999



USA.gov is the U.S. government's official web portal to all federal, state and local government web resources and services.